Time;durP1;ratioP1;P1;durP2;ratioP2;P2;SDS_P1;SDS_P2;PMS_P1;PMS_P2;Temp;Humidity;BMP_temperature;BMP_pressure;BME280_temperature;BME280_humidity;BME280_pressure;Samples;Min_cycle;Max_cycle;Signal;HPM_P1;HPM_P2
2023/11/12 00:01:32;;;;;;;15.88;9.05;;;7.40;99.90;;;7.63;76.47;99574.94;5080966;28;20072;-81
2023/11/12 00:04:01;;;;;;;16.80;9.43;;;7.40;99.90;;;7.58;76.47;99577.41;5085348;28;20041;-81
2023/11/12 00:06:28;;;;;;;16.65;9.13;;;7.40;99.90;;;7.63;76.74;99574.94;5050221;28;20411;-81
2023/11/12 00:08:56;;;;;;;15.77;9.25;;;7.40;99.90;;;7.66;76.62;99575.31;5083946;28;20119;-81
2023/11/12 00:11:25;;;;;;;16.70;9.50;;;7.50;99.90;;;7.68;76.51;99572.44;5079758;28;20636;-81
2023/11/12 00:13:52;;;;;;;17.75;9.57;;;7.40;99.90;;;7.70;76.46;99570.38;5080369;28;20127;-81
2023/11/12 00:16:22;;;;;;;14.07;9.20;;;7.50;99.90;;;7.72;76.32;99569.16;5082121;28;20067;-81
2023/11/12 00:18:50;;;;;;;14.20;9.25;;;7.50;99.90;;;7.74;76.06;99566.28;5079802;28;20049;-81
2023/11/12 00:21:17;;;;;;;15.70;9.10;;;7.50;99.90;;;7.74;76.08;99563.63;5080003;28;20458;-81
2023/11/12 00:23:45;;;;;;;20.10;9.15;;;7.50;99.90;;;7.75;76.27;99563.41;5079929;28;20048;-81
2023/11/12 00:26:13;;;;;;;14.55;9.40;;;7.50;99.90;;;7.74;76.00;99567.09;5081408;28;20048;-81
2023/11/12 00:28:45;;;;;;;15.35;8.93;;;7.50;99.90;;;7.72;75.96;99553.22;5063996;28;20044;-81
2023/11/12 00:31:13;;;;;;;16.73;9.50;;;7.50;99.90;;;7.71;76.28;99551.63;5078955;28;20494;-81
2023/11/12 00:33:42;;;;;;;20.00;9.70;;;7.50;99.90;;;7.71;76.14;99546.31;5062512;28;20098;-81
2023/11/12 00:36:09;;;;;;;17.00;9.68;;;7.50;99.90;;;7.74;76.13;99548.50;5080466;28;20044;-81
2023/11/12 00:38:37;;;;;;;14.85;9.07;;;7.50;99.90;;;7.77;75.94;99552.59;5079334;28;20139;-81
2023/11/12 00:41:05;;;;;;;17.23;9.57;;;7.50;99.90;;;7.78;75.98;99551.56;5062724;28;20454;-81
2023/11/12 00:43:34;;;;;;;15.20;9.95;;;7.50;99.90;;;7.73;75.94;99546.88;5081577;28;20488;-81
2023/11/12 00:46:04;;;;;;;15.77;10.13;;;7.50;99.90;;;7.72;75.87;99547.94;5063960;28;20052;-81
2023/11/12 00:48:31;;;;;;;15.57;10.13;;;7.40;99.90;;;7.74;75.91;99550.34;5080225;28;20048;-81
2023/11/12 00:51:00;;;;;;;21.88;11.35;;;7.50;99.90;;;7.71;75.85;99542.81;5080479;28;20064;-81
2023/11/12 00:53:30;;;;;;;16.52;10.77;;;7.40;99.90;;;7.70;76.09;99543.84;5080703;28;20040;-81
2023/11/12 00:55:59;;;;;;;19.02;10.60;;;7.40;99.90;;;7.70;76.15;99541.19;5094817;28;20052;-81
2023/11/12 00:58:26;;;;;;;18.13;10.65;;;7.40;99.90;;;7.66;75.93;99554.09;5086934;28;20044;-81
2023/11/12 01:00:54;;;;;;;20.02;10.68;;;7.40;99.90;;;7.56;76.37;99552.91;5104003;28;20044;-81
2023/11/12 01:03:28;;;;;;;16.08;11.35;;;7.40;99.90;;;7.55;76.29;99552.09;5101341;28;20071;-81
2023/11/12 01:05:56;;;;;;;15.23;10.85;;;7.40;99.90;;;7.56;76.51;99551.06;5100425;28;20147;-81
2023/11/12 01:08:25;;;;;;;16.65;10.43;;;7.40;99.90;;;7.58;76.77;99538.44;5104184;28;20040;-81
2023/11/12 01:10:54;;;;;;;20.98;11.63;;;7.40;99.90;;;7.52;76.46;99536.63;5084969;28;20059;-81
2023/11/12 01:13:21;;;;;;;19.67;10.20;;;7.40;99.90;;;7.56;76.87;99537.81;5083800;28;20044;-81
2023/11/12 01:15:49;;;;;;;18.15;10.82;;;7.40;99.90;;;7.62;76.70;99531.66;5101825;28;20048;-81
2023/11/12 01:18:17;;;;;;;19.25;10.80;;;7.40;99.90;;;7.65;76.81;99531.22;5100638;28;20054;-81
2023/11/12 01:20:44;;;;;;;18.33;10.98;;;7.40;99.90;;;7.67;76.53;99526.53;5100505;28;20039;-81
2023/11/12 01:23:13;;;;;;;19.33;10.88;;;7.50;99.90;;;7.65;76.14;99523.25;5098535;28;20044;-81
2023/11/12 01:25:42;;;;;;;16.90;10.20;;;7.40;99.90;;;7.62;76.44;99523.72;5100374;28;20052;-81
2023/11/12 01:28:12;;;;;;;19.08;10.50;;;7.40;99.90;;;7.67;76.54;99526.53;5102641;28;20040;-81
2023/11/12 01:30:41;;;;;;;16.58;10.60;;;7.40;99.90;;;7.68;76.33;99520.19;5092107;28;20504;-81
2023/11/12 01:33:10;;;;;;;17.27;11.20;;;7.40;99.90;;;7.72;76.32;99526.69;5078786;28;20049;-81
2023/11/12 01:35:41;;;;;;;16.48;10.75;;;7.50;99.90;;;7.75;76.37;99528.09;5095867;28;20045;-81
2023/11/12 01:38:08;;;;;;;16.60;10.98;;;7.50;99.90;;;7.73;76.13;99528.31;5061692;28;20040;-81
2023/11/12 01:40:39;;;;;;;15.68;10.27;;;7.50;99.90;;;7.73;75.99;99527.50;5045804;28;20059;-81
2023/11/12 01:43:08;;;;;;;14.82;10.63;;;7.50;99.90;;;7.72;76.24;99537.31;5077459;28;20055;-81
2023/11/12 01:45:36;;;;;;;22.58;11.35;;;7.50;99.90;;;7.75;76.27;99526.25;5062032;28;20080;-81
2023/11/12 01:48:05;;;;;;;16.55;10.80;;;7.50;99.90;;;7.75;75.88;99533.41;5077865;28;20049;-81
2023/11/12 01:50:33;;;;;;;14.77;10.75;;;7.50;99.90;;;7.65;75.84;99530.41;5064999;28;20050;-81
2023/11/12 01:53:01;;;;;;;16.08;10.35;;;7.50;99.90;;;7.62;76.48;99531.66;5079172;28;20085;-81
2023/11/12 01:55:32;;;;;;;19.77;10.80;;;7.40;99.90;;;7.67;76.56;99534.50;5062044;28;20051;-81
2023/11/12 01:58:00;;;;;;;16.23;10.60;;;7.40;99.90;;;7.67;76.44;99533.69;5061084;28;20136;-81
2023/11/12 02:00:30;;;;;;;16.88;10.05;;;7.40;99.90;;;7.66;76.68;99530.22;5061538;28;20036;-81
2023/11/12 02:02:58;;;;;;;17.13;9.70;;;7.50;99.90;;;7.71;76.69;99530.38;5045962;28;20068;-81
2023/11/12 02:05:25;;;;;;;16.15;10.48;;;7.50;99.90;;;7.71;76.57;99522.41;5081176;28;20048;-81
2023/11/12 02:07:53;;;;;;;17.08;10.43;;;7.50;99.90;;;7.74;76.85;99527.28;5065073;28;20044;-81
2023/11/12 02:10:21;;;;;;;15.00;9.95;;;7.60;99.90;;;7.73;76.70;99528.31;5081211;28;20510;-81
2023/11/12 02:12:49;;;;;;;17.75;9.95;;;7.50;99.90;;;7.73;76.60;99523.00;5099373;28;20059;-81
2023/11/12 02:15:18;;;;;;;18.65;11.38;;;7.50;99.90;;;7.77;76.57;99517.28;5097639;28;20044;-81
2023/11/12 02:17:49;;;;;;;;;;;7.60;99.90;;;7.76;76.66;99527.09;5084844;28;20423;-81
2023/11/12 02:20:16;;;;;;;15.75;9.85;;;7.60;99.90;;;7.78;76.57;99524.19;5085228;28;19920;-81
2023/11/12 02:22:44;;;;;;;14.25;10.00;;;7.60;99.90;;;7.72;76.62;99526.69;5101931;28;20048;-81
2023/11/12 02:25:14;;;;;;;13.13;9.68;;;7.60;99.90;;;7.77;76.96;99530.53;5101086;28;20051;-80
2023/11/12 02:27:44;;;;;;;19.20;10.57;;;7.60;99.90;;;7.78;76.68;99527.66;5101906;28;20036;-80
2023/11/12 02:30:12;;;;;;;15.43;10.00;;;7.60;99.90;;;7.75;76.67;99531.56;5101738;28;20123;-80
2023/11/12 02:32:41;;;;;;;15.65;9.90;;;7.60;99.90;;;7.74;76.49;99529.94;5102779;28;20075;-81
2023/11/12 02:35:09;;;;;;;16.52;9.40;;;7.60;99.90;;;7.77;76.87;99522.59;5084581;28;20076;-81
2023/11/12 02:37:37;;;;;;;17.45;9.85;;;7.60;99.90;;;7.78;76.79;99526.84;5101199;28;20044;-81
2023/11/12 02:40:07;;;;;;;16.50;9.90;;;7.60;99.90;;;7.79;76.57;99531.13;5099807;28;20064;-80
2023/11/12 02:42:37;;;;;;;13.68;9.38;;;7.60;99.90;;;7.79;76.76;99529.28;5102382;28;20048;-80
2023/11/12 02:45:05;;;;;;;17.27;10.00;;;7.60;99.90;;;7.78;76.82;99526.84;5101667;28;20040;-80
2023/11/12 02:47:33;;;;;;;15.55;10.07;;;7.60;99.90;;;7.78;76.92;99525.00;5103007;28;20062;-80
2023/11/12 02:50:26;;;;;;;14.95;9.32;;;7.60;99.90;;;7.83;76.46;99521.72;5101086;28;20097;-80
2023/11/12 02:52:54;;;;;;;16.23;9.63;;;7.60;99.90;;;7.79;76.22;99531.13;5099568;28;20055;-80
2023/11/12 02:55:21;;;;;;;18.13;9.90;;;7.60;99.90;;;7.69;76.41;99529.75;5100951;28;20068;-80
2023/11/12 02:57:51;;;;;;;17.50;10.55;;;7.50;99.90;;;7.74;76.28;99524.63;5084855;28;20047;-80
2023/11/12 03:00:19;;;;;;;14.90;9.10;;;7.50;99.90;;;7.74;76.22;99529.13;5102301;28;20442;-80
2023/11/12 03:02:47;;;;;;;15.93;9.55;;;7.50;99.90;;;7.75;76.17;99534.19;5101620;28;20097;-80
2023/11/12 03:05:15;;;;;;;17.77;9.32;;;7.50;99.90;;;7.77;75.92;99533.19;5118563;28;20054;-80
2023/11/12 03:07:43;;;;;;;16.50;9.57;;;7.50;99.90;;;7.77;75.95;99525.25;5096820;28;20037;-80
2023/11/12 03:10:11;;;;;;;16.02;9.15;;;7.50;99.90;;;7.77;75.88;99523.38;5081034;28;20108;-80
2023/11/12 03:12:39;;;;;;;16.40;9.90;;;7.50;99.90;;;7.79;75.73;99521.31;5061715;28;20040;-80
2023/11/12 03:15:09;;;;;;;16.67;10.40;;;7.50;99.90;;;7.77;75.53;99520.75;5076080;28;20052;-80
2023/11/12 03:17:37;;;;;;;13.07;8.57;;;7.50;99.90;;;7.67;75.75;99523.88;5082112;28;20102;-80
2023/11/12 03:20:08;;;;;;;14.20;9.15;;;7.40;99.90;;;7.71;76.09;99522.41;5079850;28;20504;-80
2023/11/12 03:22:36;;;;;;;;;;;7.50;99.90;;;7.73;75.75;99520.34;5082216;28;20055;-80
2023/11/12 03:25:05;;;;;;;15.43;8.82;;;7.50;99.90;;;7.69;75.75;99526.31;5065442;28;19942;-80
2023/11/12 03:27:34;;;;;;;18.00;9.65;;;7.50;99.90;;;7.66;75.66;99516.94;5082640;28;20410;-80
2023/11/12 03:30:02;;;;;;;16.52;8.82;;;7.40;99.90;;;7.68;75.72;99508.75;5081138;28;20049;-80
2023/11/12 03:32:31;;;;;;;14.57;8.90;;;7.40;99.90;;;7.69;75.65;99510.38;5092998;28;20569;-80
2023/11/12 03:35:00;;;;;;;13.93;8.50;;;7.40;99.90;;;7.71;75.56;99509.16;5079910;28;20041;-80
2023/11/12 03:37:28;;;;;;;15.02;8.35;;;7.50;99.90;;;7.71;75.44;99510.97;5079748;28;20049;-80
2023/11/12 03:39:56;;;;;;;14.85;8.50;;;7.40;99.90;;;7.68;75.53;99508.75;5064114;28;20131;-80
2023/11/12 03:42:24;;;;;;;14.32;8.68;;;7.40;99.90;;;7.67;75.36;99502.66;5082480;28;20055;-80
2023/11/12 03:44:51;;;;;;;18.05;8.80;;;7.40;99.90;;;7.67;75.61;99505.28;5062494;28;20033;-80
2023/11/12 03:47:19;;;;;;;17.17;9.20;;;7.40;99.90;;;7.68;75.81;99498.97;5080198;28;20122;-80
2023/11/12 03:49:48;;;;;;;15.50;8.32;;;7.40;99.90;;;7.71;75.85;99506.50;5082778;28;20045;-80
2023/11/12 03:52:15;;;;;;;16.65;8.88;;;7.40;99.90;;;7.73;75.64;99506.28;5078183;28;20135;-80
2023/11/12 03:54:43;;;;;;;14.20;8.80;;;7.50;99.90;;;7.74;75.53;99503.38;5078698;28;20434;-80
2023/11/12 03:57:10;;;;;;;16.92;8.70;;;7.50;99.90;;;7.72;75.43;99504.66;5078227;28;20102;-80
2023/11/12 03:59:38;;;;;;;13.40;8.38;;;7.40;99.90;;;7.71;75.38;99503.00;5080351;28;20584;-80
2023/11/12 04:02:05;;;;;;;17.02;8.52;;;7.40;99.90;;;7.70;75.52;99507.50;5079239;28;20466;-80
2023/11/12 04:04:33;;;;;;;14.02;8.65;;;7.40;99.90;;;7.70;75.53;99509.34;5079541;28;20036;-80
2023/11/12 04:07:02;;;;;;;14.80;8.88;;;7.50;99.90;;;7.72;75.54;99499.34;5081384;28;20036;-80
2023/11/12 04:09:31;;;;;;;16.10;9.13;;;7.40;99.90;;;7.70;75.45;99507.50;5083782;28;20465;-80
2023/11/12 04:11:58;;;;;;;14.18;8.75;;;7.40;99.90;;;7.67;75.46;99497.34;5067402;28;20054;-80
2023/11/12 04:14:27;;;;;;;14.65;9.52;;;7.40;99.90;;;7.67;75.41;99502.66;5067383;28;20044;-80
2023/11/12 04:16:54;;;;;;;16.05;9.00;;;7.40;99.90;;;7.64;75.18;99496.94;5083832;28;20059;-80
2023/11/12 04:19:24;;;;;;;14.45;8.68;;;7.40;99.90;;;7.61;75.65;99500.88;5082692;28;20068;-80
2023/11/12 04:21:52;;;;;;;13.98;8.32;;;7.30;99.90;;;7.65;75.57;99504.69;5081996;28;20052;-80
2023/11/12 04:24:20;;;;;;;18.08;8.70;;;7.40;99.90;;;7.65;75.38;99503.88;5080661;28;20033;-80
2023/11/12 04:26:48;;;;;;;15.27;8.43;;;7.40;99.90;;;7.63;75.59;99506.75;5083964;28;20067;-80
2023/11/12 04:29:15;;;;;;;12.85;8.20;;;7.40;99.90;;;7.64;75.68;99497.75;5083161;28;20059;-80
2023/11/12 04:31:43;;;;;;;15.25;8.52;;;7.40;99.90;;;7.66;75.88;99501.03;5083724;28;20419;-80
2023/11/12 04:34:10;;;;;;;13.30;8.82;;;7.50;99.90;;;7.66;75.82;99503.69;5031884;28;20044;-80
2023/11/12 04:36:38;;;;;;;15.55;8.95;;;7.40;99.90;;;7.66;76.01;99506.34;5083884;28;20051;-80
2023/11/12 04:39:07;;;;;;;14.32;8.82;;;7.40;99.90;;;7.70;75.90;99501.38;5081637;28;20096;-80
2023/11/12 04:41:37;;;;;;;15.35;8.73;;;7.40;99.90;;;7.66;75.91;99509.00;5064662;28;20047;-80
2023/11/12 04:44:06;;;;;;;12.27;8.13;;;7.40;99.90;;;7.54;76.11;99501.94;5081698;28;20036;-80
2023/11/12 04:46:35;;;;;;;14.68;8.50;;;7.30;99.90;;;7.60;76.17;99512.47;5083082;28;20037;-80
2023/11/12 04:49:03;;;;;;;14.30;8.60;;;7.30;99.90;;;7.65;76.12;99510.00;5083187;28;20044;-80
2023/11/12 04:51:33;;;;;;;15.18;8.93;;;7.40;99.90;;;7.62;76.00;99507.78;5083655;28;20048;-80
2023/11/12 04:54:03;;;;;;;14.15;8.32;;;7.40;99.90;;;7.66;76.23;99506.34;5086268;28;20049;-80
2023/11/12 04:56:30;;;;;;;17.00;8.60;;;7.40;99.90;;;7.68;76.10;99512.22;5083242;28;20053;-80
2023/11/12 04:58:59;;;;;;;13.35;8.20;;;7.50;99.90;;;7.66;76.01;99514.28;5081248;28;20044;-80
2023/11/12 05:01:27;;;;;;;17.63;7.80;;;7.40;99.90;;;7.64;76.12;99510.22;5082831;28;20040;-80
2023/11/12 05:03:54;;;;;;;15.50;8.80;;;7.40;99.90;;;7.66;76.11;99516.09;5085106;28;20043;-80
2023/11/12 05:06:25;;;;;;;12.98;8.02;;;7.40;99.90;;;7.68;76.29;99514.88;5083569;28;20049;-80
2023/11/12 05:08:54;;;;;;;16.92;8.15;;;7.50;99.90;;;7.70;76.17;99514.66;5082122;28;20500;-80
2023/11/12 05:11:22;;;;;;;15.38;7.30;;;7.50;99.90;;;7.70;76.18;99510.16;5081090;28;20080;-80
2023/11/12 05:13:49;;;;;;;16.10;8.48;;;7.50;99.90;;;7.74;76.20;99508.69;5064415;28;20052;-80
2023/11/12 05:16:18;;;;;;;13.63;8.20;;;7.50;99.90;;;7.77;75.99;99512.78;5083004;28;20048;-80
2023/11/12 05:18:46;;;;;;;13.38;8.02;;;7.50;99.90;;;7.78;76.05;99513.59;5081939;28;20060;-80
2023/11/12 05:21:13;;;;;;;11.73;7.57;;;7.60;99.90;;;7.79;76.00;99513.38;5084766;28;20107;-80
2023/11/12 05:23:40;;;;;;;13.20;7.82;;;7.60;99.90;;;7.81;76.17;99515.78;5082205;28;20044;-80
2023/11/12 05:26:08;;;;;;;12.52;7.95;;;7.50;99.90;;;7.82;75.97;99515.59;5082502;28;20045;-80
2023/11/12 05:28:35;;;;;;;14.15;7.53;;;7.60;99.90;;;7.83;75.85;99517.22;5101770;28;20063;-80
2023/11/12 05:31:03;;;;;;;11.30;7.28;;;7.60;99.90;;;7.84;75.80;99515.38;5103526;28;20061;-80
2023/11/12 05:33:31;;;;;;;14.65;7.05;;;7.60;99.90;;;7.84;75.78;99512.72;5101611;28;20556;-80
2023/11/12 05:35:59;;;;;;;15.98;7.85;;;7.60;99.90;;;7.83;75.51;99513.75;5101633;28;20044;-80
2023/11/12 05:38:26;;;;;;;19.63;7.22;;;7.60;99.90;;;7.84;75.77;99504.75;5102774;28;20044;-80
2023/11/12 05:40:54;;;;;;;14.23;6.45;;;7.60;99.90;;;7.83;75.82;99514.56;5101923;28;20040;-80
2023/11/12 05:43:21;;;;;;;10.98;6.90;;;7.50;99.90;;;7.84;75.76;99510.06;5067365;28;20056;-80
2023/11/12 05:45:49;;;;;;;10.60;6.68;;;7.60;99.90;;;7.86;75.89;99513.31;5102761;28;20044;-80
2023/11/12 05:48:18;;;;;;;9.43;6.45;;;7.60;99.90;;;7.84;75.85;99507.41;5135043;27;20048;-80
2023/11/12 05:50:48;;;;;;;10.70;6.38;;;7.60;99.90;;;7.84;75.77;99505.56;5103479;28;20428;-80
2023/11/12 05:53:16;;;;;;;11.32;6.30;;;7.60;99.90;;;7.84;75.50;99515.38;5102100;28;20528;-80
2023/11/12 05:55:44;;;;;;;10.48;6.30;;;7.60;99.90;;;7.84;75.53;99512.72;5094694;28;20048;-80
2023/11/12 05:58:11;;;;;;;11.60;6.20;;;7.60;99.90;;;7.83;75.70;99517.22;5103071;28;20040;-80
2023/11/12 06:00:39;;;;;;;10.63;6.10;;;7.60;99.90;;;7.82;75.47;99514.78;5099672;28;20044;-80
2023/11/12 06:03:06;;;;;;;10.77;6.15;;;7.60;99.90;;;7.83;75.59;99522.53;5103814;28;20099;-80
2023/11/12 06:05:33;;;;;;;10.35;6.32;;;7.60;99.90;;;7.82;75.36;99520.91;5118644;28;20388;-80
2023/11/12 06:08:03;;;;;;;9.95;6.28;;;7.60;99.90;;;7.83;75.19;99519.06;5102506;28;20097;-80
2023/11/12 06:10:31;;;;;;;10.10;6.40;;;7.50;99.90;;;7.82;75.05;99520.91;5100869;28;20420;-80
2023/11/12 06:12:58;;;;;;;10.57;6.28;;;7.50;99.90;;;7.80;75.06;99525.59;5102510;28;20040;-80
2023/11/12 06:15:27;;;;;;;14.73;6.45;;;7.50;99.90;;;7.78;75.02;99526.84;5084721;28;20737;-80
2023/11/12 06:17:54;;;;;;;11.63;6.30;;;7.50;99.90;;;7.78;75.29;99534.81;5102750;28;20036;-80
2023/11/12 06:20:23;;;;;;;10.32;6.47;;;7.50;99.90;;;7.78;75.27;99530.31;5082803;28;20450;-80
2023/11/12 06:22:50;;;;;;;9.65;6.53;;;7.50;99.90;;;7.79;75.21;99536.44;5102885;28;20051;-80
2023/11/12 06:25:22;;;;;;;12.98;6.22;;;7.50;99.90;;;7.79;74.86;99541.75;5101049;28;20044;-80
2023/11/12 06:27:49;;;;;;;11.13;6.30;;;7.50;99.90;;;7.76;75.06;99540.34;5066922;28;20491;-80
2023/11/12 06:30:17;;;;;;;11.45;6.25;;;7.40;99.90;;;7.74;75.25;99539.75;5100952;28;20044;-80
2023/11/12 06:32:46;;;;;;;10.18;5.85;;;7.40;99.90;;;7.74;75.23;99539.75;5085359;28;20052;-80
2023/11/12 06:35:13;;;;;;;11.68;6.60;;;7.40;99.90;;;7.74;75.19;99540.53;5084634;28;20040;-80
2023/11/12 06:37:41;;;;;;;13.95;6.57;;;7.40;99.90;;;7.75;75.18;99550.13;5084401;28;20048;-80
2023/11/12 06:40:11;;;;;;;9.02;6.07;;;7.50;99.90;;;7.73;75.37;99546.88;5101689;28;20051;-80
2023/11/12 06:42:43;;;;;;;12.15;6.20;;;7.40;99.90;;;7.75;75.28;99551.97;5100650;28;20040;-80
2023/11/12 06:45:12;;;;;;;18.90;6.28;;;7.40;99.90;;;7.77;75.41;99557.09;5103047;28;20062;-80
2023/11/12 06:47:40;;;;;;;11.82;6.10;;;7.50;99.90;;;7.75;75.46;99547.47;5080036;28;20059;-80
2023/11/12 06:50:11;;;;;;;13.93;6.95;;;7.50;99.90;;;7.75;75.43;99547.47;5081273;28;20045;-80
2023/11/12 06:52:39;;;;;;;11.10;6.60;;;7.50;99.90;;;7.79;75.54;99555.81;5083607;28;20611;-80
2023/11/12 06:55:09;;;;;;;10.55;6.80;;;7.50;99.90;;;7.80;75.18;99561.94;5080323;28;20480;-80
2023/11/12 06:57:36;;;;;;;13.77;7.10;;;7.50;99.90;;;7.79;75.03;99557.66;5080806;28;20053;-80
2023/11/12 07:00:08;;;;;;;10.68;6.97;;;7.50;99.90;;;7.78;75.12;99566.66;5083046;28;20044;-80
2023/11/12 07:02:37;;;;;;;11.20;6.85;;;7.50;99.90;;;7.79;75.14;99570.94;5081513;28;20055;-80
2023/11/12 07:05:06;;;;;;;16.52;6.68;;;7.50;99.90;;;7.80;75.02;99567.25;5082118;28;20052;-80
2023/11/12 07:07:33;;;;;;;11.43;6.53;;;7.50;99.90;;;7.79;74.97;99574.41;5064795;28;20063;-80
2023/11/12 07:10:01;;;;;;;13.90;6.55;;;7.50;99.90;;;7.81;75.21;99572.38;5082904;28;20040;-80
2023/11/12 07:12:30;;;;;;;10.55;6.40;;;7.50;99.90;;;7.82;75.11;99579.28;5083641;28;20044;-80
2023/11/12 07:14:58;;;;;;;13.15;6.30;;;7.60;99.90;;;7.81;74.99;99579.50;5083510;28;20052;-80
2023/11/12 07:17:27;;;;;;;11.15;6.90;;;7.50;99.90;;;7.82;74.91;99579.28;5079668;28;20058;-80
2023/11/12 07:19:58;;;;;;;10.23;7.32;;;7.60;99.90;;;7.84;75.02;99577.22;5079653;28;20037;-83
2023/11/12 07:22:26;;;;;;;14.98;8.27;;;7.60;99.90;;;7.85;74.75;99578.84;5088244;28;20052;-84
2023/11/12 07:24:54;;;;;;;9.98;7.25;;;7.60;99.90;;;7.85;74.62;99581.50;5076503;28;20047;-84
2023/11/12 07:27:22;;;;;;;12.30;6.90;;;7.50;99.90;;;7.86;74.49;99582.34;5061247;28;20079;-83
2023/11/12 07:29:49;;;;;;;11.90;6.78;;;7.60;99.90;;;7.84;74.19;99584.38;5060879;28;20079;-83
2023/11/12 07:32:18;;;;;;;9.45;6.53;;;7.60;99.90;;;7.85;74.46;99586.81;5061602;28;20499;-83
2023/11/12 07:34:47;;;;;;;11.43;6.50;;;7.60;99.90;;;7.84;74.21;99587.03;5079961;28;20044;-85
2023/11/12 07:37:15;;;;;;;14.43;6.63;;;7.60;99.90;;;7.85;74.13;99588.66;5044776;28;20044;-83
2023/11/12 07:39:43;;;;;;;11.85;6.32;;;7.50;99.90;;;7.80;74.03;99584.00;5077389;28;20045;-83
2023/11/12 07:42:11;;;;;;;11.15;6.25;;;7.50;99.90;;;7.79;74.25;99586.88;5079861;28;20044;-83
2023/11/12 07:44:38;;;;;;;10.93;5.75;;;7.60;99.90;;;7.80;74.54;99586.66;5081215;28;20047;-83
2023/11/12 07:47:06;;;;;;;11.02;5.88;;;7.50;99.90;;;7.82;74.53;99597.88;5082077;28;20056;-83
2023/11/12 07:49:33;;;;;;;9.35;5.28;;;7.60;99.90;;;7.74;73.94;99595.47;5083154;28;20047;-83
2023/11/12 07:52:03;;;;;;;11.00;5.53;;;7.50;99.90;;;7.77;73.86;99594.25;5083579;28;20048;-83
2023/11/12 07:54:30;;;;;;;11.15;5.70;;;7.50;99.90;;;7.81;74.19;99598.91;5082652;28;20037;-83
2023/11/12 07:56:59;;;;;;;13.57;6.40;;;7.60;99.90;;;7.85;74.19;99599.28;5068211;28;20048;-83
2023/11/12 07:59:26;;;;;;;11.35;6.40;;;7.60;99.90;;;7.88;74.49;99598.84;5069898;28;20176;-83
2023/11/12 08:01:54;;;;;;;9.75;5.93;;;7.70;99.90;;;7.85;74.13;99610.69;5086788;28;20045;-84
2023/11/12 08:04:22;;;;;;;10.45;5.97;;;7.60;99.90;;;7.83;74.38;99611.97;5069474;28;20049;-84
2023/11/12 08:06:53;;;;;;;10.07;5.45;;;7.60;99.90;;;7.87;74.76;99606.00;5092718;28;20048;-84
2023/11/12 08:09:25;;;;;;;14.05;6.22;;;7.70;99.90;;;7.80;74.58;99615.84;5084533;28;20415;-84
2023/11/12 08:11:52;;;;;;;12.00;5.70;;;7.70;99.90;;;7.83;74.50;99619.94;5090134;28;20040;-84
2023/11/12 08:14:20;;;;;;;10.75;6.07;;;7.60;99.90;;;7.84;74.64;99618.88;5102636;28;20507;-84
2023/11/12 08:16:48;;;;;;;10.80;5.60;;;7.70;99.90;;;7.88;74.50;99615.59;5095609;28;20048;-84
2023/11/12 08:19:15;;;;;;;9.38;6.00;;;7.70;99.90;;;7.95;74.64;99620.84;5098938;28;20047;-84
2023/11/12 08:21:44;;;;;;;9.18;5.32;;;7.80;99.90;;;7.89;74.36;99619.88;5100815;28;20055;-84
2023/11/12 08:24:11;;;;;;;10.23;5.43;;;7.80;99.90;;;7.85;73.99;99620.50;5096823;28;20044;-83
2023/11/12 08:26:41;;;;;;;9.80;5.30;;;7.80;99.90;;;7.81;74.18;99621.97;5107155;28;20419;-82
2023/11/12 08:29:10;;;;;;;9.32;5.40;;;7.80;99.90;;;7.82;73.93;99627.06;5107646;28;20111;-82
2023/11/12 08:31:37;;;;;;;12.68;5.38;;;7.80;99.90;;;7.74;73.59;99630.78;5107157;28;20043;-82
2023/11/12 08:34:07;;;;;;;10.07;5.30;;;7.80;99.90;;;7.74;74.31;99635.28;5109025;28;20048;-82
2023/11/12 08:36:34;;;;;;;11.32;5.63;;;7.80;99.90;;;7.74;74.78;99637.94;5109371;28;20103;-81
2023/11/12 08:39:05;;;;;;;7.97;4.75;;;7.80;99.90;;;7.84;75.00;99632.97;5106578;28;20036;-81
2023/11/12 08:41:33;;;;;;;11.80;5.28;;;7.90;99.90;;;7.84;74.14;99640.94;5108630;28;20048;-81
2023/11/12 08:44:02;;;;;;;11.23;5.13;;;7.90;99.90;;;7.87;74.21;99648.47;5104861;28;20129;-82
2023/11/12 08:46:30;;;;;;;8.18;4.97;;;8.00;99.90;;;7.81;73.58;99643.19;5088859;28;20045;-81
2023/11/12 08:48:57;;;;;;;7.45;5.07;;;7.90;99.90;;;7.72;74.01;99646.13;5085678;28;20048;-81
2023/11/12 08:51:25;;;;;;;7.78;4.90;;;7.90;99.90;;;7.79;74.13;99654.03;5085706;28;20071;-82
2023/11/12 08:53:52;;;;;;;10.98;5.57;;;7.90;99.90;;;7.77;73.76;99647.31;5087048;28;20055;-81
2023/11/12 08:56:20;;;;;;;12.38;4.95;;;7.90;99.90;;;7.71;73.68;99659.59;5084567;28;20048;-81
2023/11/12 08:58:47;;;;;;;10.48;5.15;;;7.90;99.90;;;7.69;73.93;99654.50;5085212;28;20052;-81
2023/11/12 09:01:16;;;;;;;11.88;4.85;;;7.90;99.90;;;7.80;73.99;99649.53;5085700;28;20040;-81
2023/11/12 09:03:44;;;;;;;8.38;4.90;;;7.90;99.90;;;7.87;74.08;99656.44;5086789;28;20082;-82
2023/11/12 09:06:14;;;;;;;9.73;5.10;;;8.00;99.90;;;7.93;73.78;99649.47;5072956;28;20048;-81
2023/11/12 09:08:45;;;;;;;12.02;5.82;;;8.00;99.90;;;8.00;73.18;99655.53;5105415;28;20483;-81
2023/11/12 09:11:14;;;;;;;11.60;6.40;;;8.10;99.90;;;8.00;73.19;99656.38;5105414;28;20074;-81
2023/11/12 09:13:42;;;;;;;13.35;7.28;;;8.10;99.90;;;8.02;73.36;99658.00;5086292;28;20048;-81
2023/11/12 09:16:12;;;;;;;11.20;5.32;;;8.10;99.90;;;8.01;73.24;99654.53;5087724;28;20032;-81
2023/11/12 09:18:43;;;;;;;11.23;5.43;;;8.10;99.90;;;8.06;73.31;99654.69;5105951;28;20054;-81
2023/11/12 09:21:10;;;;;;;10.43;5.25;;;8.10;99.90;;;8.06;73.70;99664.50;5105039;28;20834;-81
2023/11/12 09:23:38;;;;;;;10.38;5.18;;;8.10;99.90;;;8.00;72.79;99655.53;5106727;28;20080;-81
2023/11/12 09:26:05;;;;;;;9.05;5.18;;;8.20;99.90;;;8.08;72.80;99662.44;5104481;28;20068;-83
2023/11/12 09:28:33;;;;;;;11.25;5.28;;;8.20;99.90;;;8.12;73.30;99655.69;5099542;28;20503;-83
2023/11/12 09:31:00;;;;;;;12.50;5.05;;;8.20;99.90;;;8.15;73.37;99664.03;5081795;28;20046;-83
2023/11/12 09:33:28;;;;;;;7.75;4.55;;;8.30;99.90;;;8.12;72.08;99659.16;5099255;28;20064;-84
2023/11/12 09:35:57;;;;;;;8.95;5.40;;;8.30;99.90;;;8.21;72.86;99663.16;5098662;28;20040;-83
2023/11/12 09:38:24;;;;;;;9.00;5.57;;;8.30;99.90;;;8.27;72.61;99662.28;5081528;28;20052;-84
2023/11/12 09:40:55;;;;;;;8.82;5.50;;;8.30;99.90;;;8.32;72.60;99658.19;5097062;28;20039;-84
2023/11/12 09:43:25;;;;;;;11.93;5.32;;;8.30;99.90;;;8.37;72.90;99653.88;5096003;28;20040;-84
2023/11/12 09:45:56;;;;;;;10.93;4.90;;;8.40;99.90;;;8.42;73.06;99659.34;5094602;28;20568;-84
2023/11/12 09:48:35;;;;;;;11.15;5.68;;;8.40;99.90;;;8.45;72.55;99655.47;5096149;28;20043;-84
2023/11/12 09:51:08;;;;;;;9.73;4.75;;;8.40;99.90;;;8.49;72.64;99656.63;5097333;28;20054;-84
2023/11/12 09:53:39;;;;;;;13.27;5.07;;;8.50;99.90;;;8.51;72.54;99651.94;5098058;28;20048;-84
2023/11/12 09:56:09;;;;;;;10.40;4.72;;;8.50;99.90;;;8.53;72.80;99655.16;5096294;28;20051;-84
2023/11/12 09:58:37;;;;;;;8.50;4.60;;;8.50;99.90;;;8.54;71.47;99648.00;5096582;28;20050;-84
2023/11/12 10:01:06;;;;;;;10.82;4.57;;;8.50;99.90;;;8.48;71.85;99652.34;5097098;28;20040;-84
2023/11/12 10:03:34;;;;;;;8.52;4.28;;;8.50;99.90;;;8.55;72.54;99657.63;5097152;28;20426;-84
2023/11/12 10:06:06;;;;;;;10.07;4.10;;;8.50;99.90;;;8.48;71.37;99652.34;5078429;28;20494;-84
2023/11/12 10:08:35;;;;;;;7.45;4.05;;;8.50;99.90;;;8.54;71.60;99654.16;5097567;28;20511;-84
2023/11/12 10:11:17;;;;;;;7.68;3.90;;;8.50;99.90;;;8.60;72.06;99650.63;5096644;28;20064;-84
2023/11/12 10:13:45;;;;;;;9.90;3.80;;;8.60;99.90;;;8.65;72.39;99652.63;5094988;28;20036;-84
2023/11/12 10:16:29;;;;;;;9.40;4.10;;;8.60;99.90;;;8.65;71.68;99647.31;5100744;28;20130;-84
2023/11/12 10:19:11;;;;;;;7.57;3.70;;;8.60;99.90;;;8.67;71.05;99650.53;5101844;28;20048;-83
2023/11/12 10:21:58;;;;;;;8.52;3.92;;;8.60;99.90;;;8.65;71.34;99652.63;5104844;28;20055;-80
2023/11/12 10:24:27;;;;;;;10.38;4.05;;;8.60;99.90;;;8.65;71.67;99653.44;5105927;28;20048;-80
2023/11/12 10:26:58;;;;;;;8.95;3.75;;;8.60;99.90;;;8.66;72.05;99644.44;5107314;28;20047;-80
2023/11/12 10:29:27;;;;;;;10.82;4.03;;;8.70;99.90;;;8.70;72.42;99640.31;5107683;28;20048;-80
2023/11/12 10:31:54;;;;;;;10.60;3.40;;;8.60;99.90;;;8.73;71.82;99644.34;5105730;28;20492;-80